sensor_id;sensor_type;location;lat;lon;timestamp;pressure;altitude;pressure_sealevel;temperature;humidity
80699;BME280;70062;51.658;5.658;2024-02-04T00:06:13;102202.80;;;21.18;36.28
80699;BME280;70062;51.658;5.658;2024-02-04T00:19:59;102199.41;;;21.22;36.79
80699;BME280;70062;51.658;5.658;2024-02-04T00:28:55;102204.89;;;21.18;36.44
80699;BME280;70062;51.658;5.658;2024-02-04T00:33:25;102208.34;;;20.98;36.79
80699;BME280;70062;51.658;5.658;2024-02-04T00:43:30;102212.23;;;20.81;37.47
80699;BME280;70062;51.658;5.658;2024-02-04T00:58:58;102209.88;;;21.40;36.13
80699;BME280;70062;51.658;5.658;2024-02-04T01:02:27;102211.85;;;21.11;36.48
80699;BME280;70062;51.658;5.658;2024-02-04T01:05:54;102220.91;;;20.80;36.97
80699;BME280;70062;51.658;5.658;2024-02-04T01:09:27;102216.07;;;20.94;37.18
80699;BME280;70062;51.658;5.658;2024-02-04T01:12:54;102214.67;;;21.18;36.88
80699;BME280;70062;51.658;5.658;2024-02-04T01:16:23;102203.80;;;21.29;36.69
80699;BME280;70062;51.658;5.658;2024-02-04T01:19:56;102208.27;;;21.26;36.48
80699;BME280;70062;51.658;5.658;2024-02-04T01:23:32;102205.98;;;21.13;36.66
80699;BME280;70062;51.658;5.658;2024-02-04T01:27:02;102206.86;;;20.95;36.71
80699;BME280;70062;51.658;5.658;2024-02-04T01:30:35;102203.08;;;20.68;37.07
80699;BME280;70062;51.658;5.658;2024-02-04T01:34:02;102207.92;;;20.43;37.81
80699;BME280;70062;51.658;5.658;2024-02-04T01:37:35;102203.83;;;20.69;37.73
80699;BME280;70062;51.658;5.658;2024-02-04T01:41:02;102201.63;;;20.95;37.36
80699;BME280;70062;51.658;5.658;2024-02-04T01:44:30;102199.31;;;21.06;37.09
80699;BME280;70062;51.658;5.658;2024-02-04T01:47:57;102199.61;;;21.04;36.94
80699;BME280;70062;51.658;5.658;2024-02-04T01:51:07;102203.32;;;20.93;36.97
80699;BME280;70062;51.658;5.658;2024-02-04T01:54:41;102201.70;;;20.80;37.04
80699;BME280;70062;51.658;5.658;2024-02-04T01:58:15;102195.80;;;20.52;37.41
80699;BME280;70062;51.658;5.658;2024-02-04T02:01:50;102194.79;;;20.31;38.01
80699;BME280;70062;51.658;5.658;2024-02-04T02:05:20;102195.46;;;20.58;37.99
80699;BME280;70062;51.658;5.658;2024-02-04T02:09:04;102196.66;;;20.86;37.58
80699;BME280;70062;51.658;5.658;2024-02-04T02:13:28;102202.08;;;20.99;37.27
80699;BME280;70062;51.658;5.658;2024-02-04T02:24:27;102207.77;;;20.61;37.33
80699;BME280;70062;51.658;5.658;2024-02-04T02:27:52;102205.35;;;20.44;37.91
80699;BME280;70062;51.658;5.658;2024-02-04T02:30:58;102194.41;;;20.93;37.94
80699;BME280;70062;51.658;5.658;2024-02-04T02:34:25;102198.04;;;21.49;36.88
80699;BME280;70062;51.658;5.658;2024-02-04T02:41:32;102185.38;;;22.02;35.80
80699;BME280;70062;51.658;5.658;2024-02-04T02:44:58;102183.41;;;22.00;35.52
80699;BME280;70062;51.658;5.658;2024-02-04T02:48:27;102179.42;;;21.87;35.54
80699;BME280;70062;51.658;5.658;2024-02-04T02:51:54;102180.33;;;21.67;35.62
80699;BME280;70062;51.658;5.658;2024-02-04T02:56:15;102181.55;;;21.39;35.96
80699;BME280;70062;51.658;5.658;2024-02-04T02:59:41;102180.34;;;21.08;36.40
80699;BME280;70062;51.658;5.658;2024-02-04T03:03:08;102178.38;;;20.82;36.69
80699;BME280;70062;51.658;5.658;2024-02-04T03:06:15;102164.49;;;20.55;37.12
80699;BME280;70062;51.658;5.658;2024-02-04T03:09:44;102170.20;;;20.31;37.43
80699;BME280;70062;51.658;5.658;2024-02-04T03:13:10;102166.56;;;20.03;38.00
80699;BME280;70062;51.658;5.658;2024-02-04T03:16:36;102177.41;;;19.77;38.41
80699;BME280;70062;51.658;5.658;2024-02-04T03:20:03;102165.89;;;19.41;38.79
80699;BME280;70062;51.658;5.658;2024-02-04T03:23:29;102178.90;;;19.30;39.36
80699;BME280;70062;51.658;5.658;2024-02-04T03:26:56;102178.97;;;19.07;39.72
80699;BME280;70062;51.658;5.658;2024-02-04T03:30:25;102180.80;;;18.86;40.17
80699;BME280;70062;51.658;5.658;2024-02-04T03:33:54;102171.99;;;18.65;40.54
80699;BME280;70062;51.658;5.658;2024-02-04T03:37:23;102175.94;;;18.45;41.18
80699;BME280;70062;51.658;5.658;2024-02-04T03:40:49;102175.23;;;18.77;41.68
80699;BME280;70062;51.658;5.658;2024-02-04T03:44:15;102171.19;;;19.64;40.89
80699;BME280;70062;51.658;5.658;2024-02-04T03:47:45;102175.92;;;20.53;39.46
80699;BME280;70062;51.658;5.658;2024-02-04T03:51:18;102173.09;;;21.11;38.16
80699;BME280;70062;51.658;5.658;2024-02-04T03:54:45;102179.06;;;21.44;37.30
80699;BME280;70062;51.658;5.658;2024-02-04T03:58:12;102175.52;;;21.56;36.64
80699;BME280;70062;51.658;5.658;2024-02-04T04:01:46;102174.59;;;21.54;36.53
80699;BME280;70062;51.658;5.658;2024-02-04T04:05:16;102182.67;;;21.42;36.43
80699;BME280;70062;51.658;5.658;2024-02-04T04:08:43;102182.52;;;21.23;36.68
80699;BME280;70062;51.658;5.658;2024-02-04T04:12:11;102186.61;;;21.02;36.85
80699;BME280;70062;51.658;5.658;2024-02-04T04:15:39;102198.14;;;20.78;37.06
80699;BME280;70062;51.658;5.658;2024-02-04T04:19:11;102200.34;;;20.52;37.37
80699;BME280;70062;51.658;5.658;2024-02-04T04:22:51;102192.35;;;20.25;37.88
80699;BME280;70062;51.658;5.658;2024-02-04T04:26:20;102182.46;;;19.99;38.24
80699;BME280;70062;51.658;5.658;2024-02-04T04:29:57;102173.04;;;19.67;38.81
80699;BME280;70062;51.658;5.658;2024-02-04T04:33:30;102162.56;;;19.61;39.61
80699;BME280;70062;51.658;5.658;2024-02-04T04:36:58;102160.25;;;19.91;39.32
80699;BME280;70062;51.658;5.658;2024-02-04T04:40:30;102156.20;;;20.06;39.13
80699;BME280;70062;51.658;5.658;2024-02-04T04:43:58;102156.68;;;20.50;38.86
80699;BME280;70062;51.658;5.658;2024-02-04T04:47:05;102157.23;;;21.25;37.92
80699;BME280;70062;51.658;5.658;2024-02-04T04:50:51;102147.80;;;21.81;36.72
80699;BME280;70062;51.658;5.658;2024-02-04T04:54:32;102138.52;;;22.16;36.03
80699;BME280;70062;51.658;5.658;2024-02-04T04:58:06;102139.92;;;22.25;35.64
80699;BME280;70062;51.658;5.658;2024-02-04T05:01:54;102136.99;;;22.19;35.47
80699;BME280;70062;51.658;5.658;2024-02-04T05:05:22;102133.30;;;22.03;35.42
80699;BME280;70062;51.658;5.658;2024-02-04T05:08:48;102120.04;;;21.82;35.57
80699;BME280;70062;51.658;5.658;2024-02-04T05:11:55;102122.94;;;21.57;35.82
80699;BME280;70062;51.658;5.658;2024-02-04T05:15:22;102125.36;;;21.34;36.07
80699;BME280;70062;51.658;5.658;2024-02-04T05:18:51;102135.08;;;21.06;36.43
80699;BME280;70062;51.658;5.658;2024-02-04T05:24:24;102119.83;;;20.67;37.17
80699;BME280;70062;51.658;5.658;2024-02-04T05:27:55;102115.41;;;20.36;37.53
80699;BME280;70062;51.658;5.658;2024-02-04T05:31:26;102124.39;;;20.09;38.06
80699;BME280;70062;51.658;5.658;2024-02-04T05:34:53;102118.23;;;19.85;38.42
80699;BME280;70062;51.658;5.658;2024-02-04T05:39:12;102124.13;;;19.62;38.88
80699;BME280;70062;51.658;5.658;2024-02-04T05:43:45;102127.28;;;19.33;39.55
80699;BME280;70062;51.658;5.658;2024-02-04T05:48:15;102129.42;;;19.09;40.28
80699;BME280;70062;51.658;5.658;2024-02-04T05:52:31;102122.92;;;19.63;40.44
80699;BME280;70062;51.658;5.658;2024-02-04T05:56:58;102129.38;;;20.78;39.07
80699;BME280;70062;51.658;5.658;2024-02-04T06:04:09;102111.11;;;21.89;36.58
80699;BME280;70062;51.658;5.658;2024-02-04T06:07:36;102105.80;;;22.01;36.16
80699;BME280;70062;51.658;5.658;2024-02-04T06:11:12;102093.31;;;21.98;36.08
80699;BME280;70062;51.658;5.658;2024-02-04T06:15:33;102098.88;;;21.81;35.85
80699;BME280;70062;51.658;5.658;2024-02-04T06:19:43;102101.59;;;21.56;36.04
80699;BME280;70062;51.658;5.658;2024-02-04T06:23:55;102101.40;;;21.27;36.44
80699;BME280;70062;51.658;5.658;2024-02-04T06:27:33;102104.09;;;20.97;36.84
80699;BME280;70062;51.658;5.658;2024-02-04T06:31:02;102096.86;;;20.70;37.10
80699;BME280;70062;51.658;5.658;2024-02-04T06:34:36;102084.94;;;20.42;37.51
80699;BME280;70062;51.658;5.658;2024-02-04T06:38:07;102062.11;;;20.14;37.99
80699;BME280;70062;51.658;5.658;2024-02-04T06:41:20;102064.52;;;19.78;38.67
80699;BME280;70062;51.658;5.658;2024-02-04T06:43:46;102070.35;;;19.75;39.14
80699;BME280;70062;51.658;5.658;2024-02-04T06:46:12;102074.52;;;19.92;39.20
80699;BME280;70062;51.658;5.658;2024-02-04T06:48:37;102074.52;;;20.09;39.02
80699;BME280;70062;51.658;5.658;2024-02-04T06:51:03;102065.16;;;20.28;38.87
80699;BME280;70062;51.658;5.658;2024-02-04T06:53:57;102077.34;;;20.70;38.65
80699;BME280;70062;51.658;5.658;2024-02-04T06:57:22;102085.08;;;21.44;37.49
80699;BME280;70062;51.658;5.658;2024-02-04T07:00:48;102083.37;;;21.92;36.67
80699;BME280;70062;51.658;5.658;2024-02-04T07:04:14;102090.74;;;22.16;35.93
80699;BME280;70062;51.658;5.658;2024-02-04T07:07:43;102089.80;;;22.21;35.72
80699;BME280;70062;51.658;5.658;2024-02-04T07:11:20;102104.34;;;22.13;35.51
80699;BME280;70062;51.658;5.658;2024-02-04T07:15:51;102097.73;;;21.92;35.60
80699;BME280;70062;51.658;5.658;2024-02-04T07:20:22;102105.95;;;21.62;35.89
80699;BME280;70062;51.658;5.658;2024-02-04T07:29:36;102103.30;;;21.00;36.67
80699;BME280;70062;51.658;5.658;2024-02-04T07:33:06;102095.18;;;20.65;37.05
80699;BME280;70062;51.658;5.658;2024-02-04T07:36:19;102100.54;;;20.45;37.52
80699;BME280;70062;51.658;5.658;2024-02-04T07:42:32;102094.91;;;20.03;38.17
80699;BME280;70062;51.658;5.658;2024-02-04T07:46:02;102095.43;;;19.80;38.57
80699;BME280;70062;51.658;5.658;2024-02-04T07:49:35;102096.08;;;19.57;39.01
80699;BME280;70062;51.658;5.658;2024-02-04T07:53:08;102092.01;;;19.34;39.48
80699;BME280;70062;51.658;5.658;2024-02-04T07:56:41;102086.95;;;19.09;40.04
80699;BME280;70062;51.658;5.658;2024-02-04T08:00:17;102085.49;;;19.07;40.85
80699;BME280;70062;51.658;5.658;2024-02-04T08:03:48;102087.01;;;19.73;40.64
80699;BME280;70062;51.658;5.658;2024-02-04T08:07:20;102083.83;;;20.71;39.37
80699;BME280;70062;51.658;5.658;2024-02-04T08:10:48;102077.40;;;21.46;37.76
80699;BME280;70062;51.658;5.658;2024-02-04T08:14:56;102072.65;;;21.89;36.93
80699;BME280;70062;51.658;5.658;2024-02-04T08:18:08;102070.72;;;22.03;36.23
80699;BME280;70062;51.658;5.658;2024-02-04T08:21:35;102064.30;;;22.05;35.97
80699;BME280;70062;51.658;5.658;2024-02-04T08:25:01;102057.79;;;21.97;35.98
80699;BME280;70062;51.658;5.658;2024-02-04T08:28:31;102059.34;;;21.80;36.16
80699;BME280;70062;51.658;5.658;2024-02-04T08:32:20;102060.64;;;21.61;36.42
80699;BME280;70062;51.658;5.658;2024-02-04T08:35:46;102063.98;;;21.32;36.78
80699;BME280;70062;51.658;5.658;2024-02-04T08:38:52;102067.98;;;21.05;37.17
80699;BME280;70062;51.658;5.658;2024-02-04T08:42:31;102068.65;;;20.72;37.99
80699;BME280;70062;51.658;5.658;2024-02-04T08:46:06;102073.11;;;20.88;38.14
80699;BME280;70062;51.658;5.658;2024-02-04T08:49:36;102076.93;;;21.13;37.79
80699;BME280;70062;51.658;5.658;2024-02-04T08:53:10;102082.30;;;21.24;37.49
80699;BME280;70062;51.658;5.658;2024-02-04T08:56:43;102081.90;;;21.22;37.23
80699;BME280;70062;51.658;5.658;2024-02-04T09:00:15;102072.69;;;21.11;37.28
80699;BME280;70062;51.658;5.658;2024-02-04T09:03:42;102076.27;;;20.94;37.47
80699;BME280;70062;51.658;5.658;2024-02-04T09:07:10;102082.15;;;20.68;37.85
80699;BME280;70062;51.658;5.658;2024-02-04T09:10:39;102086.82;;;20.72;38.46
80699;BME280;70062;51.658;5.658;2024-02-04T09:14:12;102093.53;;;21.20;37.92
80699;BME280;70062;51.658;5.658;2024-02-04T09:17:25;102091.70;;;21.66;37.34
80699;BME280;70062;51.658;5.658;2024-02-04T09:20:34;102086.89;;;21.77;36.83
80699;BME280;70062;51.658;5.658;2024-02-04T09:23:02;102084.27;;;21.77;36.76
80699;BME280;70062;51.658;5.658;2024-02-04T09:25:52;102079.30;;;21.97;36.72
80699;BME280;70062;51.658;5.658;2024-02-04T09:29:21;102067.71;;;22.52;36.13
80699;BME280;70062;51.658;5.658;2024-02-04T09:32:48;102071.48;;;22.92;35.44
80699;BME280;70062;51.658;5.658;2024-02-04T09:35:42;102075.41;;;23.06;35.17
80699;BME280;70062;51.658;5.658;2024-02-04T09:42:29;102074.54;;;22.96;34.72
80699;BME280;70062;51.658;5.658;2024-02-04T09:45:16;102081.45;;;22.82;34.88
80699;BME280;70062;51.658;5.658;2024-02-04T09:48:10;102078.44;;;22.62;35.08
80699;BME280;70062;51.658;5.658;2024-02-04T09:51:36;102073.41;;;22.32;35.32
80699;BME280;70062;51.658;5.658;2024-02-04T09:55:05;102080.27;;;22.07;35.88
80699;BME280;70062;51.658;5.658;2024-02-04T09:58:31;102078.08;;;22.46;35.84
80699;BME280;70062;51.658;5.658;2024-02-04T10:01:56;102080.02;;;22.89;35.18
80699;BME280;70062;51.658;5.658;2024-02-04T10:05:22;102082.30;;;23.10;34.69
80699;BME280;70062;51.658;5.658;2024-02-04T10:08:48;102087.27;;;23.13;34.60
80699;BME280;70062;51.658;5.658;2024-02-04T10:12:14;102093.13;;;22.98;34.47
80699;BME280;70062;51.658;5.658;2024-02-04T10:15:40;102097.92;;;22.57;34.80
80699;BME280;70062;51.658;5.658;2024-02-04T10:19:06;102092.09;;;22.54;35.22
80699;BME280;70062;51.658;5.658;2024-02-04T10:22:32;102096.06;;;22.69;34.97
80699;BME280;70062;51.658;5.658;2024-02-04T10:25:59;102095.98;;;22.73;35.06
80699;BME280;70062;51.658;5.658;2024-02-04T10:29:27;102091.42;;;22.65;35.06
80699;BME280;70062;51.658;5.658;2024-02-04T10:32:53;102091.94;;;22.48;35.01
80699;BME280;70062;51.658;5.658;2024-02-04T10:36:19;102093.90;;;22.24;35.21
80699;BME280;70062;51.658;5.658;2024-02-04T10:39:45;102101.39;;;21.99;35.55
80699;BME280;70062;51.658;5.658;2024-02-04T10:43:11;102095.74;;;21.67;35.88
80699;BME280;70062;51.658;5.658;2024-02-04T10:46:40;102091.93;;;21.32;36.53
80699;BME280;70062;51.658;5.658;2024-02-04T10:50:07;102085.31;;;21.47;36.76
80699;BME280;70062;51.658;5.658;2024-02-04T10:53:32;102086.59;;;21.72;36.61
80699;BME280;70062;51.658;5.658;2024-02-04T10:57:00;102082.27;;;21.82;36.33
80699;BME280;70062;51.658;5.658;2024-02-04T11:00:24;102078.02;;;21.79;36.14
80699;BME280;70062;51.658;5.658;2024-02-04T11:03:50;102079.31;;;21.67;36.24
80699;BME280;70062;51.658;5.658;2024-02-04T11:07:19;102082.36;;;21.48;36.53
80699;BME280;70062;51.658;5.658;2024-02-04T11:10:45;102079.40;;;21.21;36.92
80699;BME280;70062;51.658;5.658;2024-02-04T11:14:12;102071.88;;;20.93;37.42
80699;BME280;70062;51.658;5.658;2024-02-04T11:21:37;102062.98;;;21.41;37.20
80699;BME280;70062;51.658;5.658;2024-02-04T11:25:15;102063.81;;;21.54;36.72
80699;BME280;70062;51.658;5.658;2024-02-04T11:28:36;102062.87;;;21.51;36.76
80699;BME280;70062;51.658;5.658;2024-02-04T11:31:42;102059.08;;;21.38;36.82
80699;BME280;70062;51.658;5.658;2024-02-04T11:35:08;102059.23;;;21.24;37.00
80699;BME280;70062;51.658;5.658;2024-02-04T11:38:39;102055.67;;;20.95;37.26
80699;BME280;70062;51.658;5.658;2024-02-04T11:41:45;102054.45;;;20.75;37.85
80699;BME280;70062;51.658;5.658;2024-02-04T11:44:46;102051.09;;;20.93;37.96
80699;BME280;70062;51.658;5.658;2024-02-04T11:48:13;102044.54;;;21.23;37.58
80699;BME280;70062;51.658;5.658;2024-02-04T11:51:30;102045.95;;;21.37;37.07
80699;BME280;70062;51.658;5.658;2024-02-04T11:54:20;102040.90;;;21.38;37.10
80699;BME280;70062;51.658;5.658;2024-02-04T11:56:58;102036.93;;;21.32;37.06
80699;BME280;70062;51.658;5.658;2024-02-04T11:59:25;102038.59;;;21.22;37.26
80699;BME280;70062;51.658;5.658;2024-02-04T12:02:05;102039.48;;;21.10;37.28
80699;BME280;70062;51.658;5.658;2024-02-04T12:04:31;102036.92;;;20.91;37.56
80699;BME280;70062;51.658;5.658;2024-02-04T12:07:06;102031.88;;;20.67;37.78
80699;BME280;70062;51.658;5.658;2024-02-04T12:09:37;102030.27;;;20.59;38.39
80699;BME280;70062;51.658;5.658;2024-02-04T12:12:05;102028.31;;;20.76;38.39
80699;BME280;70062;51.658;5.658;2024-02-04T12:14:52;102014.60;;;20.99;38.04
80699;BME280;70062;51.658;5.658;2024-02-04T12:18:26;102010.33;;;21.18;37.78
80699;BME280;70062;51.658;5.658;2024-02-04T12:21:48;102020.61;;;21.22;37.57
80699;BME280;70062;51.658;5.658;2024-02-04T12:24:34;102017.84;;;21.18;37.56
80699;BME280;70062;51.658;5.658;2024-02-04T12:28:00;102027.69;;;21.06;37.53
80699;BME280;70062;51.658;5.658;2024-02-04T12:34:54;101995.54;;;20.45;38.22
80699;BME280;70062;51.658;5.658;2024-02-04T12:38:04;102013.50;;;20.58;38.72
80699;BME280;70062;51.658;5.658;2024-02-04T12:41:30;102010.25;;;21.00;38.61
80699;BME280;70062;51.658;5.658;2024-02-04T12:44:56;102010.21;;;21.80;37.77
80699;BME280;70062;51.658;5.658;2024-02-04T12:48:22;102000.66;;;22.60;36.39
80699;BME280;70062;51.658;5.658;2024-02-04T12:51:48;101987.23;;;23.12;35.37
80699;BME280;70062;51.658;5.658;2024-02-04T12:55:22;101995.13;;;23.36;34.66
80699;BME280;70062;51.658;5.658;2024-02-04T12:58:27;101985.36;;;23.39;34.36
80699;BME280;70062;51.658;5.658;2024-02-04T13:01:16;101985.39;;;23.30;34.21
80699;BME280;70062;51.658;5.658;2024-02-04T13:03:57;101985.02;;;23.17;34.30
80699;BME280;70062;51.658;5.658;2024-02-04T13:07:08;101986.48;;;22.98;34.41
80699;BME280;70062;51.658;5.658;2024-02-04T13:09:43;101992.38;;;22.75;34.54
80699;BME280;70062;51.658;5.658;2024-02-04T13:12:18;101990.03;;;22.53;34.74
80699;BME280;70062;51.658;5.658;2024-02-04T13:14:44;101996.77;;;22.31;35.11
80699;BME280;70062;51.658;5.658;2024-02-04T13:17:31;101999.09;;;22.06;35.20
80699;BME280;70062;51.658;5.658;2024-02-04T13:20:19;101996.58;;;21.80;35.88
80699;BME280;70062;51.658;5.658;2024-02-04T13:23:13;101997.49;;;21.58;36.23
80699;BME280;70062;51.658;5.658;2024-02-04T13:26:04;101994.19;;;21.28;36.69
80699;BME280;70062;51.658;5.658;2024-02-04T13:28:39;101988.25;;;21.07;37.05
80699;BME280;70062;51.658;5.658;2024-02-04T13:31:14;101986.09;;;20.84;37.38
80699;BME280;70062;51.658;5.658;2024-02-04T13:34:04;101981.02;;;20.63;37.79
80699;BME280;70062;51.658;5.658;2024-02-04T13:37:41;101979.71;;;20.29;38.32
80699;BME280;70062;51.658;5.658;2024-02-04T13:41:06;101976.73;;;20.22;39.13
80699;BME280;70062;51.658;5.658;2024-02-04T13:44:33;101972.49;;;20.51;39.02
80699;BME280;70062;51.658;5.658;2024-02-04T13:47:59;101969.17;;;20.71;38.74
80699;BME280;70062;51.658;5.658;2024-02-04T13:51:16;101969.36;;;20.78;38.56
80699;BME280;70062;51.658;5.658;2024-02-04T13:54:18;101971.71;;;20.75;38.65
80699;BME280;70062;51.658;5.658;2024-02-04T13:57:26;101978.13;;;20.66;38.72
80699;BME280;70062;51.658;5.658;2024-02-04T14:00:59;101985.77;;;20.51;38.77
80699;BME280;70062;51.658;5.658;2024-02-04T14:04:25;101970.21;;;20.32;39.17
80699;BME280;70062;51.658;5.658;2024-02-04T14:07:33;101958.05;;;20.14;39.47
80699;BME280;70062;51.658;5.658;2024-02-04T14:10:59;101957.98;;;19.93;39.76
80699;BME280;70062;51.658;5.658;2024-02-04T14:14:13;101966.10;;;19.73;40.22
80699;BME280;70062;51.658;5.658;2024-02-04T14:17:03;101970.23;;;19.49;40.68
80699;BME280;70062;51.658;5.658;2024-02-04T14:19:33;101967.91;;;19.47;41.22
80699;BME280;70062;51.658;5.658;2024-02-04T14:22:00;101963.00;;;19.69;41.11
80699;BME280;70062;51.658;5.658;2024-02-04T14:24:49;101950.92;;;19.91;40.90
80699;BME280;70062;51.658;5.658;2024-02-04T14:27:27;101955.06;;;20.13;40.51
80699;BME280;70062;51.658;5.658;2024-02-04T14:29:58;101947.81;;;20.23;40.30
80699;BME280;70062;51.658;5.658;2024-02-04T14:32:49;101943.88;;;20.25;40.22
80699;BME280;70062;51.658;5.658;2024-02-04T14:36:14;101939.77;;;20.22;40.02
80699;BME280;70062;51.658;5.658;2024-02-04T14:39:40;101942.27;;;20.11;40.10
80699;BME280;70062;51.658;5.658;2024-02-04T14:43:01;101942.92;;;19.97;40.22
80699;BME280;70062;51.658;5.658;2024-02-04T14:46:09;101936.05;;;19.82;40.41
80699;BME280;70062;51.658;5.658;2024-02-04T14:48:58;101938.75;;;19.67;40.71
80699;BME280;70062;51.658;5.658;2024-02-04T14:52:04;101944.76;;;19.52;40.94
80699;BME280;70062;51.658;5.658;2024-02-04T14:55:25;101946.15;;;19.31;41.33
80699;BME280;70062;51.658;5.658;2024-02-04T14:58:11;101941.71;;;19.16;41.93
80699;BME280;70062;51.658;5.658;2024-02-04T15:01:37;101943.86;;;19.41;42.14
80699;BME280;70062;51.658;5.658;2024-02-04T15:04:45;101947.02;;;19.75;41.63
80699;BME280;70062;51.658;5.658;2024-02-04T15:07:53;101944.23;;;19.94;41.17
80699;BME280;70062;51.658;5.658;2024-02-04T15:11:18;101940.55;;;20.06;40.87
80699;BME280;70062;51.658;5.658;2024-02-04T15:14:27;101933.92;;;20.05;40.62
80699;BME280;70062;51.658;5.658;2024-02-04T15:17:13;101939.89;;;20.01;40.60
80699;BME280;70062;51.658;5.658;2024-02-04T15:20:21;101931.40;;;19.90;40.74
80699;BME280;70062;51.658;5.658;2024-02-04T15:23:46;101926.48;;;19.76;40.93
80699;BME280;70062;51.658;5.658;2024-02-04T15:27:03;101926.88;;;19.60;41.26
80699;BME280;70062;51.658;5.658;2024-02-04T15:30:11;101926.19;;;19.44;41.66
80699;BME280;70062;51.658;5.658;2024-02-04T15:33:17;101922.52;;;19.26;42.15
80699;BME280;70062;51.658;5.658;2024-02-04T15:36:24;101928.27;;;19.09;42.46
80699;BME280;70062;51.658;5.658;2024-02-04T15:39:49;101925.70;;;18.90;42.89
80699;BME280;70062;51.658;5.658;2024-02-04T15:42:56;101927.06;;;18.73;43.39
80699;BME280;70062;51.658;5.658;2024-02-04T15:46:08;101922.45;;;18.56;43.83
80699;BME280;70062;51.658;5.658;2024-02-04T15:49:17;101921.23;;;18.41;44.18
80699;BME280;70062;51.658;5.658;2024-02-04T15:52:30;101920.49;;;18.24;44.62
80699;BME280;70062;51.658;5.658;2024-02-04T15:55:26;101922.30;;;18.11;44.90
80699;BME280;70062;51.658;5.658;2024-02-04T15:58:13;101922.64;;;17.97;45.37
80699;BME280;70062;51.658;5.658;2024-02-04T16:01:38;101921.02;;;17.85;45.58
80699;BME280;70062;51.658;5.658;2024-02-04T16:05:03;101918.45;;;17.72;45.97
80699;BME280;70062;51.658;5.658;2024-02-04T16:08:09;101914.88;;;17.61;46.32
80699;BME280;70062;51.658;5.658;2024-02-04T16:11:58;101902.77;;;17.48;46.77
80699;BME280;70062;51.658;5.658;2024-02-04T16:15:18;101893.63;;;17.36;47.13
80699;BME280;70062;51.658;5.658;2024-02-04T16:18:14;101888.55;;;17.27;47.36
80699;BME280;70062;51.658;5.658;2024-02-04T16:20:45;101878.66;;;17.18;47.59
80699;BME280;70062;51.658;5.658;2024-02-04T16:23:42;101882.23;;;17.20;48.17
80699;BME280;70062;51.658;5.658;2024-02-04T16:26:46;101886.44;;;17.80;48.08
80699;BME280;70062;51.658;5.658;2024-02-04T16:29:16;101885.79;;;18.51;47.18
80699;BME280;70062;51.658;5.658;2024-02-04T16:32:03;101885.02;;;19.35;45.55
80699;BME280;70062;51.658;5.658;2024-02-04T16:34:54;101880.67;;;19.96;44.21
80699;BME280;70062;51.658;5.658;2024-02-04T16:37:25;101873.52;;;20.36;43.02
80699;BME280;70062;51.658;5.658;2024-02-04T16:39:52;101870.71;;;20.62;42.37
80699;BME280;70062;51.658;5.658;2024-02-04T16:42:23;101864.98;;;20.77;41.63
80699;BME280;70062;51.658;5.658;2024-02-04T16:44:53;101865.70;;;20.85;41.15
80699;BME280;70062;51.658;5.658;2024-02-04T16:47:21;101864.34;;;20.86;40.96
80699;BME280;70062;51.658;5.658;2024-02-04T16:49:47;101867.23;;;20.83;40.82
80699;BME280;70062;51.658;5.658;2024-02-04T16:52:13;101859.02;;;20.76;40.56
80699;BME280;70062;51.658;5.658;2024-02-04T16:55:00;101856.67;;;20.66;40.48
80699;BME280;70062;51.658;5.658;2024-02-04T16:58:10;101854.95;;;20.52;40.73
80699;BME280;70062;51.658;5.658;2024-02-04T17:01:46;101861.23;;;20.33;40.83
80699;BME280;70062;51.658;5.658;2024-02-04T17:05:15;101871.86;;;20.12;41.00
80699;BME280;70062;51.658;5.658;2024-02-04T17:08:05;101874.27;;;19.91;41.35
80699;BME280;70062;51.658;5.658;2024-02-04T17:10:44;101876.82;;;19.76;41.53
80699;BME280;70062;51.658;5.658;2024-02-04T17:13:58;101883.61;;;19.52;41.93
80699;BME280;70062;51.658;5.658;2024-02-04T17:17:22;101886.13;;;19.49;42.59
80699;BME280;70062;51.658;5.658;2024-02-04T17:20:47;101880.38;;;20.04;42.17
80699;BME280;70062;51.658;5.658;2024-02-04T17:24:03;101876.66;;;20.55;41.45
80699;BME280;70062;51.658;5.658;2024-02-04T17:27:16;101877.48;;;20.81;40.69
80699;BME280;70062;51.658;5.658;2024-02-04T17:29:44;101874.79;;;20.93;40.21
80699;BME280;70062;51.658;5.658;2024-02-04T17:32:18;101874.51;;;20.95;40.07
80699;BME280;70062;51.658;5.658;2024-02-04T17:34:52;101874.59;;;20.92;39.93
80699;BME280;70062;51.658;5.658;2024-02-04T17:37:23;101874.23;;;20.84;39.81
80699;BME280;70062;51.658;5.658;2024-02-04T17:40:00;101876.55;;;20.72;39.89
80699;BME280;70062;51.658;5.658;2024-02-04T17:42:35;101871.84;;;20.58;40.05
80699;BME280;70062;51.658;5.658;2024-02-04T17:45:49;101869.81;;;20.40;40.16
80699;BME280;70062;51.658;5.658;2024-02-04T17:48:41;101864.74;;;20.20;40.51
80699;BME280;70062;51.658;5.658;2024-02-04T17:51:36;101870.30;;;19.99;40.80
80699;BME280;70062;51.658;5.658;2024-02-04T17:54:04;101874.02;;;19.82;41.11
80699;BME280;70062;51.658;5.658;2024-02-04T17:56:56;101874.88;;;19.63;41.44
80699;BME280;70062;51.658;5.658;2024-02-04T17:59:25;101874.55;;;19.46;41.64
80699;BME280;70062;51.658;5.658;2024-02-04T18:01:52;101877.39;;;19.31;41.92
80699;BME280;70062;51.658;5.658;2024-02-04T18:04:23;101867.88;;;19.10;42.30
80699;BME280;70062;51.658;5.658;2024-02-04T18:06:53;101868.92;;;18.99;42.59
80699;BME280;70062;51.658;5.658;2024-02-04T18:10:03;101869.38;;;18.81;42.97
80699;BME280;70062;51.658;5.658;2024-02-04T18:13:12;101872.98;;;18.63;43.37
80699;BME280;70062;51.658;5.658;2024-02-04T18:16:19;101874.52;;;18.47;43.75
80699;BME280;70062;51.658;5.658;2024-02-04T18:19:46;101879.66;;;18.29;44.03
80699;BME280;70062;51.658;5.658;2024-02-04T18:23:12;101880.52;;;18.14;44.38